Othello — LXOD — position and weather

sailwx.info

Track history (hours):
 
Tides and Currents Weather Stations Pressure Air Temp Water Temp Dewpoint Dewpoint Depression Visibility Wind Speed Wind Dir Waves Ship Positions

Othello

Last reported at 2014-Dec-22 04:34 UTC. Time now 2014-Dec-22 04:59 UTC.
Position N 54°21' E 009°54'.

Length 104 m; draft 7.3 m.

Type: Ship. MMSI: 253279000.

Date/timePositionNaut miles runAvg speedWind from/ knotsBaromVisibWave heightAir tempDewpointWater temp
2014-Dec-22 04:34N 54°21' E 009°54'4 3.8
2014-Dec-22 03:33N 54°21' E 010°00'5 4.8
2014-Dec-22 02:34N 54°22' E 010°08'3 3.3
2014-Dec-22 01:34N 54°24' E 010°12'9 9.2
2014-Dec-22 00:34N 54°31' E 010°23'10 9.5
2014-Dec-21 23:33N 54°35' E 010°38'9 9.3
2014-Dec-21 22:34N 54°35' E 010°54'9 8.9
2014-Dec-21 21:34N 54°36' E 011°10'9 9.4
2014-Dec-21 20:33N 54°32' E 011°24'10 9.8
2014-Dec-21 19:33N 54°28' E 011°39'10 9.6
2014-Dec-21 18:34N 54°27' E 011°56'9 8.7
2014-Dec-21 17:34N 54°28' E 012°10'9 9.5
2014-Dec-21 16:34N 54°37' E 012°16'11 9.6
2014-Dec-21 15:27N 54°43' E 012°31'9 9.8
2014-Dec-21 14:33N 54°48' E 012°45'1110.3
2014-Dec-21 13:30N 54°47' E 013°03'1010.8
2014-Dec-21 12:33N 54°46' E 013°21'1010.3
2014-Dec-21 11:34N 54°45' E 013°39'9 9.5
2014-Dec-21 10:33N 54°43' E 013°55'1110.6
2014-Dec-21 09:33N 54°40' E 014°12'20 9.8
2014-Dec-21 07:33N 54°39' E 014°46'1110.1
2014-Dec-21 06:28N 54°41' E 015°05'107 8.9
2014-Dec-20 18:30N 54°53' E 018°09'9 9.2
2014-Dec-20 17:34N 54°53' E 018°24'9 8.7
2014-Dec-20 16:34N 54°55' E 018°39'8 8.0
2014-Dec-20 15:34N 54°53' E 018°52'8 8.2
2014-Dec-20 14:34N 54°50' E 019°06'9 8.9
2014-Dec-20 13:34N 54°48' E 019°21'9 8.9
2014-Dec-20 12:34N 54°45' E 019°35'9 8.9
2014-Dec-20 11:33N 54°40' E 019°48'5 0.2
2014-Dec-19 15:07N 54°38' E 019°56'4 7.5
2014-Dec-19 14:33N 54°40' E 019°49'1 1.1
2014-Dec-19 13:33N 54°40' E 019°47'0 0.0
2014-Dec-19 12:30N 54°40' E 019°47'0 0.0
2014-Dec-19 11:30N 54°40' E 019°47'0 0.0
2014-Dec-19 10:33N 54°40' E 019°47'0 0.0
2014-Dec-19 09:33N 54°40' E 019°47'0 0.0
2014-Dec-19 08:33N 54°40' E 019°47'0 0.0
2014-Dec-19 07:30N 54°40' E 019°47'2 2.5
2014-Dec-19 06:33N 54°41' E 019°45'9 9.0
2014-Dec-19 05:33N 54°49' E 019°37'11 9.7
2014-Dec-19 04:26N 55°00' E 019°38'  
2014-Dec-14 11:29N 55°35' E 015°36'1111.4
2014-Dec-14 10:33N 55°32' E 015°18'1211.5
2014-Dec-14 09:33N 55°28' E 014°59'1211.5
2014-Dec-14 08:33N 55°24' E 014°40'1211.8
2014-Dec-14 07:33N 55°15' E 014°27'1211.9
2014-Dec-14 06:33N 55°05' E 014°14'1111.2
2014-Dec-14 05:33N 54°59' E 013°58'1211.8
2014-Dec-14 04:31N 54°55' E 013°38'4811.5
2014-Dec-14 00:23N 54°35' E 012°23'1011.6
2014-Dec-13 23:30N 54°27' E 012°14'1010.9
2014-Dec-13 22:32N 54°24' E 011°56'3411.4
2014-Dec-13 19:33N 54°35' E 011°01'1611.8
2014-Dec-13 18:13N 54°34' E 010°34'811.6
2014-Dec-13 17:33N 54°30' E 010°22'1010.0
2014-Dec-13 16:33N 54°23' E 010°11'2 1.8
2014-Dec-13 15:33N 54°22' E 010°08'3 3.3
2014-Dec-13 14:33N 54°22' E 010°03'8 7.4
2014-Dec-13 13:32N 54°22' E 009°49'7 7.6
2014-Dec-13 12:33N 54°17' E 009°39'8 7.6
2014-Dec-13 11:33N 54°11' E 009°31'8 7.7
2014-Dec-13 10:32N 54°07' E 009°20'5 4.6
2014-Dec-13 09:27N 54°02' E 009°18'3 3.2
2014-Dec-13 08:34N 53°60' E 009°17'7 6.6
2014-Dec-13 07:33N 53°54' E 009°10'1 1.3
2014-Dec-13 06:33N 53°54' E 009°09'3 2.5
2014-Dec-13 05:34N 53°52' E 009°05'1010.1
2014-Dec-13 04:34N 53°50' E 008°48'1211.5
2014-Dec-13 03:33N 53°58' E 008°33'1111.0
2014-Dec-13 02:34N 53°59' E 008°15'1211.5
2014-Dec-13 01:33N 53°58' E 007°55'1311.8
2014-Dec-13 00:29N 53°55' E 007°35'4711.8
2014-Dec-12 20:32N 53°44' E 006°17'1111.4
2014-Dec-12 19:33N 53°41' E 005°60'1111.2
2014-Dec-12 18:34N 53°37' E 005°42'1111.0
2014-Dec-12 17:34N 53°34' E 005°24'1010.4
2014-Dec-12 16:34N 53°31' E 005°07'10 9.8
2014-Dec-12 15:33N 53°26' E 004°54'9 8.8
2014-Dec-12 14:33N 53°22' E 004°40'10 9.5
2014-Dec-12 13:33N 53°13' E 004°33'10 9.6
2014-Dec-12 12:34N 53°05' E 004°26'10 9.7
2014-Dec-12 11:33N 52°56' E 004°19'10 9.6
2014-Dec-12 10:34N 52°48' E 004°11'1010.2
2014-Dec-12 09:33N 52°40' E 004°01'1010.5
2014-Dec-12 08:34N 52°30' E 003°54'1110.9
2014-Dec-12 07:33N 52°19' E 003°51'1010.4
2014-Dec-12 06:34N 52°09' E 003°54'4 4.2
2014-Dec-12 05:34N 52°05' E 003°51'7 7.5
2014-Dec-12 04:34N 52°01' E 004°01'  
Track history (hours):
 
Tides and Currents Weather Stations Pressure Air Temp Water Temp Dewpoint Dewpoint Depression Visibility Wind Speed Wind Dir Waves Ship Positions

Othello

Last reported at 2014-Dec-22 04:34 UTC. Time now 2014-Dec-22 04:59 UTC.
Position N 54°21' E 009°54'.

Length 104 m; draft 7.3 m.

Type: Ship. MMSI: 253279000.

Date/timePositionNaut miles runAvg speedWind from/ knotsBaromVisibWave heightAir tempDewpointWater temp
2014-Dec-22 04:34N 54°21' E 009°54'4 3.8
2014-Dec-22 03:33N 54°21' E 010°00'5 4.8
2014-Dec-22 02:34N 54°22' E 010°08'3 3.3
2014-Dec-22 01:34N 54°24' E 010°12'9 9.2
2014-Dec-22 00:34N 54°31' E 010°23'10 9.5
2014-Dec-21 23:33N 54°35' E 010°38'9 9.3
2014-Dec-21 22:34N 54°35' E 010°54'9 8.9
2014-Dec-21 21:34N 54°36' E 011°10'9 9.4
2014-Dec-21 20:33N 54°32' E 011°24'10 9.8
2014-Dec-21 19:33N 54°28' E 011°39'10 9.6
2014-Dec-21 18:34N 54°27' E 011°56'9 8.7
2014-Dec-21 17:34N 54°28' E 012°10'9 9.5
2014-Dec-21 16:34N 54°37' E 012°16'11 9.6
2014-Dec-21 15:27N 54°43' E 012°31'9 9.8
2014-Dec-21 14:33N 54°48' E 012°45'1110.3
2014-Dec-21 13:30N 54°47' E 013°03'1010.8
2014-Dec-21 12:33N 54°46' E 013°21'1010.3
2014-Dec-21 11:34N 54°45' E 013°39'9 9.5
2014-Dec-21 10:33N 54°43' E 013°55'1110.6
2014-Dec-21 09:33N 54°40' E 014°12'20 9.8
2014-Dec-21 07:33N 54°39' E 014°46'1110.1
2014-Dec-21 06:28N 54°41' E 015°05'107 8.9
2014-Dec-20 18:30N 54°53' E 018°09'9 9.2
2014-Dec-20 17:34N 54°53' E 018°24'9 8.7
2014-Dec-20 16:34N 54°55' E 018°39'8 8.0
2014-Dec-20 15:34N 54°53' E 018°52'8 8.2
2014-Dec-20 14:34N 54°50' E 019°06'9 8.9
2014-Dec-20 13:34N 54°48' E 019°21'9 8.9
2014-Dec-20 12:34N 54°45' E 019°35'9 8.9
2014-Dec-20 11:33N 54°40' E 019°48'5 0.2
2014-Dec-19 15:07N 54°38' E 019°56'4 7.5
2014-Dec-19 14:33N 54°40' E 019°49'1 1.1
2014-Dec-19 13:33N 54°40' E 019°47'0 0.0
2014-Dec-19 12:30N 54°40' E 019°47'0 0.0
2014-Dec-19 11:30N 54°40' E 019°47'0 0.0
2014-Dec-19 10:33N 54°40' E 019°47'0 0.0
2014-Dec-19 09:33N 54°40' E 019°47'0 0.0
2014-Dec-19 08:33N 54°40' E 019°47'0 0.0
2014-Dec-19 07:30N 54°40' E 019°47'2 2.5
2014-Dec-19 06:33N 54°41' E 019°45'9 9.0
2014-Dec-19 05:33N 54°49' E 019°37'11 9.7
2014-Dec-19 04:26N 55°00' E 019°38'  
2014-Dec-14 11:29N 55°35' E 015°36'1111.4
2014-Dec-14 10:33N 55°32' E 015°18'1211.5
2014-Dec-14 09:33N 55°28' E 014°59'1211.5
2014-Dec-14 08:33N 55°24' E 014°40'1211.8
2014-Dec-14 07:33N 55°15' E 014°27'1211.9
2014-Dec-14 06:33N 55°05' E 014°14'1111.2
2014-Dec-14 05:33N 54°59' E 013°58'1211.8
2014-Dec-14 04:31N 54°55' E 013°38'4811.5
2014-Dec-14 00:23N 54°35' E 012°23'1011.6
2014-Dec-13 23:30N 54°27' E 012°14'1010.9
2014-Dec-13 22:32N 54°24' E 011°56'3411.4
2014-Dec-13 19:33N 54°35' E 011°01'1611.8
2014-Dec-13 18:13N 54°34' E 010°34'811.6
2014-Dec-13 17:33N 54°30' E 010°22'1010.0
2014-Dec-13 16:33N 54°23' E 010°11'2 1.8
2014-Dec-13 15:33N 54°22' E 010°08'3 3.3
2014-Dec-13 14:33N 54°22' E 010°03'8 7.4
2014-Dec-13 13:32N 54°22' E 009°49'7 7.6
2014-Dec-13 12:33N 54°17' E 009°39'8 7.6
2014-Dec-13 11:33N 54°11' E 009°31'8 7.7
2014-Dec-13 10:32N 54°07' E 009°20'5 4.6
2014-Dec-13 09:27N 54°02' E 009°18'3 3.2
2014-Dec-13 08:34N 53°60' E 009°17'7 6.6
2014-Dec-13 07:33N 53°54' E 009°10'1 1.3
2014-Dec-13 06:33N 53°54' E 009°09'3 2.5
2014-Dec-13 05:34N 53°52' E 009°05'1010.1
2014-Dec-13 04:34N 53°50' E 008°48'1211.5
2014-Dec-13 03:33N 53°58' E 008°33'1111.0
2014-Dec-13 02:34N 53°59' E 008°15'1211.5
2014-Dec-13 01:33N 53°58' E 007°55'1311.8
2014-Dec-13 00:29N 53°55' E 007°35'4711.8
2014-Dec-12 20:32N 53°44' E 006°17'1111.4
2014-Dec-12 19:33N 53°41' E 005°60'1111.2
2014-Dec-12 18:34N 53°37' E 005°42'1111.0
2014-Dec-12 17:34N 53°34' E 005°24'1010.4
2014-Dec-12 16:34N 53°31' E 005°07'10 9.8
2014-Dec-12 15:33N 53°26' E 004°54'9 8.8
2014-Dec-12 14:33N 53°22' E 004°40'10 9.5
2014-Dec-12 13:33N 53°13' E 004°33'10 9.6
2014-Dec-12 12:34N 53°05' E 004°26'10 9.7
2014-Dec-12 11:33N 52°56' E 004°19'10 9.6
2014-Dec-12 10:34N 52°48' E 004°11'1010.2
2014-Dec-12 09:33N 52°40' E 004°01'1010.5
2014-Dec-12 08:34N 52°30' E 003°54'1110.9
2014-Dec-12 07:33N 52°19' E 003°51'1010.4
2014-Dec-12 06:34N 52°09' E 003°54'4 4.2
2014-Dec-12 05:34N 52°05' E 003°51'7 7.5
2014-Dec-12 04:34N 52°01' E 004°01'  

Dump ship's entire track history